| Record Date MM/DD/YYYY | Record Time HH:MM:SS | Record Julian Date NNN day of the year | Air Temperature Max (Degrees Fahrenheit F) | Time Max Air Temperature HH:MM:SS This is the time of max air temp for the prior hour interval listed for record [Time]. | Air Temperature Min (Degrees Fahrenheit F) | Time Min Air Temperature HH:MM:SS This is the time of min air temp for the prior hour interval listed for record [Time]. | Air Temperature Observed (Degrees Fahrenheit F) This is an instantaneous reading at the record [Time]. | Relative Humidity Max (Percent) | Time Max Relative Humidity HH:MM:SS This is the time of max relative humidity for the prior hour interval listed for record [Time]. | Relative Humidity Min (Percent) | Time Min Relative Humidity HH:MM:SS This is the time of min relative humidity for the prior hour interval listed for record [Time]. | Relative Humidity Observed (Percent) This is an instantaneous reading at the record [Time]. | Precipitation (Inches n.nn) rain fall that occurred during the prior hour interval listed for record [Time]. | Wind Speed (Miles Per Hour) Resultant Speed that occurred during the prior hour interval listed for record [Time]. | Wind Direction (Degrees) Resultant Direction that occurred during the prior hour interval listed for record [Time]. | Solar Radiation (Langley's) that occurred during the prior hour interval listed for record [Time]. | Soil Temperature Average at 2 inch depth (Degrees Fahrenheit F) that occurred during the prior hour interval listed for record [Time]. | Soil Temperature Observed at 2 inch depth (Degrees Fahrenheit F) This is an instantaneous reading at the record [Time]. | Soil Temperature Average at 4 inch depth (Degrees Fahrenheit F) that occurred during the prior hour interval listed for record [Time]. | Soil Temperature Observed at 4 inch depth (Degrees Fahrenheit F) This is an instantaneous reading at the record [Time]. |
|---|---|---|---|---|---|---|---|---|---|---|---|---|---|---|---|---|---|---|---|---|
| 04/29/2026 | 0:00:00 | 119 | 72 | 23:00:05 | 71 | 23:56:02 | 71 | 92 | 23:44:04 | 91 | 23:06:05 | 92 | 0 | 2.2 | 191 | 0 | 76 | 76 | 77 | 77 |
| 04/29/2026 | 1:00:00 | 119 | 71 | 0:12:03 | 70 | 0:31:05 | 70 | 92 | 0:54:00 | 91 | 0:20:05 | 92.1 | 0 | 2.8 | 151 | 0 | 76 | 76 | 77 | 76 |
| 04/29/2026 | 2:00:00 | 119 | 71 | 1:54:00 | 70 | 1:30:02 | 71 | 93 | 1:50:04 | 92 | 1:00:01 | 92.8 | 0 | 2.9 | 170 | 0 | 75 | 75 | 76 | 76 |
| 04/29/2026 | 3:00:00 | 119 | 71 | 2:08:05 | 70 | 2:58:02 | 70 | 93 | 2:09:01 | 92 | 2:58:02 | 92.9 | 0 | 2.4 | 178 | 0 | 75 | 75 | 76 | 75 |
| 04/29/2026 | 4:00:00 | 119 | 70 | 3:00:05 | 68 | 3:56:04 | 68 | 93 | 3:59:00 | 92 | 3:50:04 | 93.2 | 0 | 0.5 | 99 | 0 | 74 | 74 | 75 | 75 |
| 04/29/2026 | 5:00:00 | 119 | 70 | 4:33:01 | 68 | 4:00:02 | 68 | 94 | 4:15:04 | 93 | 4:00:01 | 93.6 | 0 | 0.9 | 122 | 0 | 74 | 74 | 75 | 75 |
| 04/29/2026 | 6:00:00 | 119 | 69 | 5:59:05 | 67 | 5:19:02 | 68 | 94 | 5:52:03 | 93 | 5:16:01 | 94.3 | 0 | 0.6 | 103 | 1 | 74 | 73 | 74 | 74 |
| 04/29/2026 | 7:00:00 | 119 | 72 | 7:00:00 | 68 | 6:00:01 | 72 | 95 | 6:56:01 | 94 | 6:02:02 | 94.5 | 0 | 0.8 | 103 | 10 | 74 | 74 | 74 | 74 |
| 04/29/2026 | 8:00:00 | 119 | 76 | 7:54:04 | 72 | 7:00:00 | 75 | 95 | 7:01:01 | 86 | 7:57:02 | 86.2 | 0 | 3.0 | 208 | 27 | 75 | 76 | 75 | 75 |
| 04/29/2026 | 9:00:00 | 119 | 78 | 8:48:03 | 75 | 8:00:04 | 77 | 87 | 8:06:05 | 78 | 8:50:04 | 79.86 | 0 | 5.5 | 250 | 33 | 76 | 77 | 75 | 76 |
| 04/29/2026 | 10:00:00 | 119 | 82 | 9:58:02 | 77 | 9:01:01 | 82 | 81 | 9:02:03 | 68 | 9:55:05 | 69.93 | 0 | 5.2 | 237 | 54 | 78 | 79 | 77 | 77 |
| 04/29/2026 | 11:00:00 | 119 | 84 | 10:42:02 | 81 | 10:18:02 | 83 | 72 | 10:02:05 | 65 | 10:43:01 | 69.61 | 0 | 5.0 | 234 | 68 | 81 | 82 | 78 | 79 |
| 04/29/2026 | 12:00:00 | 119 | 85 | 11:52:00 | 82 | 11:11:04 | 85 | 71 | 11:00:00 | 61 | 11:53:05 | 63.19 | 0 | 5.7 | 230 | 78 | 84 | 85 | 80 | 81 |
| 04/29/2026 | 13:00:00 | 119 | 86 | 12:13:04 | 84 | 12:02:01 | 86 | 68 | 12:07:02 | 59 | 12:23:01 | 62.62 | 0 | 7.0 | 206 | 75 | 86 | 87 | 82 | 83 |
| 04/29/2026 | 14:00:00 | 119 | 86 | 13:00:00 | 84 | 13:52:00 | 85 | 66 | 13:08:01 | 58 | 13:44:05 | 62.71 | 0 | 7.5 | 214 | 64 | 87 | 87 | 84 | 84 |
| 04/29/2026 | 15:00:00 | 119 | 85 | 14:00:01 | 83 | 14:59:04 | 83 | 68 | 14:57:02 | 61 | 14:01:01 | 66.75 | 0 | 6.6 | 217 | 35 | 87 | 86 | 84 | 84 |
| 04/29/2026 | 16:00:00 | 119 | 83 | 15:00:00 | 80 | 15:58:05 | 80 | 71 | 15:57:01 | 66 | 15:00:04 | 71.1 | 0 | 3.3 | 208 | 5 | 85 | 83 | 84 | 83 |
| 04/29/2026 | 17:00:00 | 119 | 80 | 16:00:05 | 77 | 17:00:00 | 77 | 80 | 16:38:05 | 71 | 16:00:02 | 73.76 | 0 | 1.5 | 144 | 1 | 83 | 82 | 83 | 82 |
| 04/29/2026 | 18:00:00 | 119 | 77 | 17:00:00 | 68 | 17:59:04 | 68 | 91 | 18:00:00 | 74 | 17:00:00 | 90.9 | 0.33 | 6.9 | 45 | 0 | 81 | 80 | 81 | 81 |
| 04/29/2026 | 19:00:00 | 119 | 68 | 18:00:01 | 66 | 18:55:05 | 66 | 93 | 18:58:05 | 91 | 18:00:00 | 92.6 | 0.85 | 4.4 | 60 | 0 | 76 | 74 | 79 | 78 |
| 04/29/2026 | 20:00:00 | 119 | 66 | 19:46:04 | 66 | 19:20:00 | 66 | 93 | 19:58:04 | 93 | 19:01:00 | 93.1 | 0.25 | 4.5 | 107 | 0 | 74 | 74 | 77 | 76 |
| 04/29/2026 | 21:00:00 | 119 | 66 | 20:34:02 | 66 | 20:51:00 | 66 | 93 | 20:52:04 | 93 | 20:38:02 | 93.3 | 0.53 | 4.7 | 113 | 0 | 73 | 72 | 75 | 75 |
| 04/29/2026 | 22:00:00 | 119 | 66 | 21:50:03 | 66 | 21:10:05 | 66 | 94 | 21:54:02 | 93 | 21:01:03 | 93.9 | 0.34 | 2.5 | 116 | 0 | 72 | 72 | 74 | 74 |
| 04/29/2026 | 23:00:00 | 119 | 66 | 22:31:05 | 66 | 22:02:00 | 66 | 94 | 22:52:01 | 94 | 22:01:03 | 94.3 | 0.19 | 4.6 | 150 | 0 | 72 | 72 | 73 | 73 |
| 04/30/2026 | 0:00:00 | 120 | 67 | 23:44:01 | 66 | 23:00:00 | 66 | 94 | 23:04:02 | 94 | 23:55:05 | 94 | 0.01 | 3.3 | 166 | 0 | 72 | 72 | 73 | 73 |
| 04/30/2026 | 1:00:00 | 120 | 67 | 0:25:01 | 66 | 0:00:04 | 66 | 94 | 0:46:00 | 94 | 0:00:04 | 94.1 | 0.02 | 2.1 | 348 | 0 | 72 | 72 | 73 | 73 |
| 04/30/2026 | 2:00:00 | 120 | 67 | 1:54:01 | 66 | 1:01:04 | 67 | 94 | 1:59:05 | 94 | 1:01:00 | 94.3 | 0.09 | 3.7 | 276 | 0 | 72 | 72 | 73 | 73 |
| 04/30/2026 | 3:00:00 | 120 | 67 | 2:07:04 | 66 | 2:54:00 | 66 | 95 | 2:49:02 | 94 | 2:02:00 | 94.5 | 0.01 | 3.2 | 129 | 0 | 72 | 72 | 73 | 73 |
| 04/30/2026 | 4:00:00 | 120 | 66 | 3:00:01 | 65 | 3:59:05 | 65 | 95 | 3:43:00 | 94 | 3:35:00 | 94.5 | 0.01 | 1.6 | 339 | 0 | 72 | 72 | 73 | 72 |
| 04/30/2026 | 5:00:00 | 120 | 66 | 4:46:03 | 64 | 4:20:00 | 66 | 95 | 4:43:00 | 94 | 4:17:04 | 94.8 | 0 | 2.2 | 332 | 0 | 71 | 71 | 72 | 72 |
| 04/30/2026 | 6:00:00 | 120 | 66 | 5:55:04 | 65 | 5:07:02 | 66 | 95 | 5:30:02 | 95 | 5:06:04 | 94.8 | 0 | 2.6 | 3 | 1 | 71 | 71 | 72 | 72 |
| 04/30/2026 | 7:00:00 | 120 | 67 | 6:58:01 | 66 | 6:03:03 | 67 | 95 | 6:01:01 | 94 | 7:00:00 | 94.4 | 0 | 3.8 | 28 | 5 | 71 | 72 | 72 | 72 |
| 04/30/2026 | 8:00:00 | 120 | 67 | 7:53:04 | 67 | 7:00:02 | 67 | 95 | 7:01:04 | 94 | 7:47:02 | 93.9 | 0.05 | 2.6 | 35 | 5 | 72 | 72 | 72 | 72 |
| 04/30/2026 | 9:00:00 | 120 | 68 | 8:51:00 | 67 | 8:00:01 | 68 | 94 | 8:02:03 | 93 | 8:54:00 | 93.4 | 0 | 2.1 | 51 | 10 | 72 | 73 | 72 | 73 |
| 04/30/2026 | 10:00:00 | 120 | 70 | 9:59:04 | 68 | 9:00:00 | 70 | 94 | 9:01:02 | 92 | 9:55:04 | 91.9 | 0 | 1.8 | 70 | 13 | 73 | 73 | 73 | 73 |
| 04/30/2026 | 11:00:00 | 120 | 72 | 11:00:00 | 70 | 10:04:01 | 72 | 92 | 10:05:05 | 87 | 10:49:05 | 87.5 | 0 | 2.5 | 73 | 22 | 74 | 75 | 73 | 74 |
| 04/30/2026 | 12:00:00 | 120 | 74 | 11:22:01 | 72 | 11:00:00 | 72 | 88 | 11:00:02 | 84 | 11:25:02 | 85.8 | 0 | 3.0 | 53 | 29 | 75 | 76 | 74 | 75 |
| 04/30/2026 | 13:00:00 | 120 | 73 | 12:53:05 | 71 | 12:33:04 | 73 | 87 | 12:44:02 | 85 | 12:58:02 | 85.2 | 0 | 3.1 | 55 | 13 | 76 | 76 | 75 | 75 |
| 04/30/2026 | 14:00:00 | 120 | 74 | 13:55:04 | 73 | 13:00:00 | 73 | 86 | 13:04:02 | 82 | 13:58:02 | 82.8 | 0 | 3.8 | 72 | 24 | 76 | 76 | 75 | 75 |
| 04/30/2026 | 15:00:00 | 120 | 75 | 14:53:04 | 73 | 14:00:01 | 74 | 84 | 14:04:03 | 82 | 14:55:05 | 82 | 0 | 3.4 | 59 | 24 | 77 | 77 | 76 | 76 |
| 04/30/2026 | 16:00:00 | 120 | 74 | 15:05:04 | 73 | 15:54:01 | 73 | 85 | 15:55:03 | 82 | 15:08:01 | 84.4 | 0 | 2.9 | 44 | 10 | 77 | 77 | 76 | 76 |
| 04/30/2026 | 17:00:00 | 120 | 73 | 16:01:01 | 70 | 16:59:04 | 70 | 89 | 16:59:01 | 84 | 16:03:04 | 88.5 | 0.02 | 3.2 | 32 | 2 | 76 | 76 | 76 | 76 |
| 04/30/2026 | 18:00:00 | 120 | 70 | 17:00:00 | 68 | 17:53:00 | 68 | 92 | 18:00:00 | 89 | 17:00:00 | 92.1 | 0.13 | 3.0 | 50 | 1 | 75 | 75 | 76 | 75 |
| 04/30/2026 | 19:00:00 | 120 | 68 | 18:12:05 | 68 | 18:45:02 | 68 | 93 | 18:53:02 | 92 | 18:01:04 | 92.8 | 0.03 | 1.0 | 13 | 0 | 74 | 74 | 75 | 75 |
| 04/30/2026 | 20:00:00 | 120 | 68 | 19:00:01 | 67 | 19:47:01 | 67 | 93 | 19:42:00 | 93 | 19:06:02 | 93.1 | 0.01 | 3.5 | 54 | 0 | 74 | 74 | 74 | 74 |
| 04/30/2026 | 21:00:00 | 120 | 67 | 20:00:01 | 66 | 20:43:01 | 67 | 93 | 20:07:01 | 93 | 20:59:04 | 92.8 | 0 | 2.5 | 48 | 0 | 73 | 73 | 74 | 74 |
| 04/30/2026 | 22:00:00 | 120 | 67 | 21:18:02 | 66 | 21:40:02 | 67 | 93 | 21:03:01 | 93 | 21:45:00 | 92.8 | 0 | 2.4 | 14 | 0 | 73 | 73 | 74 | 74 |
| 04/30/2026 | 23:00:00 | 120 | 67 | 22:00:03 | 64 | 22:58:03 | 64 | 93 | 22:16:03 | 93 | 22:19:00 | 92.7 | 0.01 | 4.7 | 18 | 0 | 73 | 72 | 73 | 73 |
| 05/01/2026 | 0:00:00 | 121 | 64 | 23:00:03 | 64 | 23:42:04 | 64 | 93 | 23:36:02 | 93 | 23:58:04 | 92.7 | 0 | 4.2 | 27 | 0 | 72 | 72 | 73 | 73 |
| 05/01/2026 | 1:00:00 | 121 | 64 | 0:02:00 | 63 | 0:34:01 | 63 | 93 | 0:31:04 | 92 | 0:52:03 | 92.6 | 0 | 2.2 | 50 | 0 | 72 | 72 | 73 | 72 |
| 05/01/2026 | 2:00:00 | 121 | 64 | 1:00:05 | 63 | 1:13:01 | 63 | 93 | 1:00:01 | 92 | 1:56:02 | 92.4 | 0 | 2.0 | 22 | 0 | 71 | 71 | 72 | 72 |
| 05/01/2026 | 3:00:00 | 121 | 63 | 2:01:00 | 62 | 3:00:00 | 62 | 93 | 2:58:00 | 92 | 2:05:01 | 92.6 | 0 | 2.8 | 68 | 0 | 71 | 71 | 72 | 72 |
| 05/01/2026 | 4:00:00 | 121 | 63 | 3:47:02 | 62 | 3:12:02 | 63 | 93 | 3:10:02 | 92 | 3:50:02 | 92.3 | 0 | 2.3 | 37 | 0 | 71 | 71 | 72 | 72 |
| 05/01/2026 | 5:00:00 | 121 | 63 | 4:04:03 | 62 | 4:58:00 | 62 | 93 | 4:59:04 | 92 | 4:10:00 | 93 | 0.06 | 3.1 | 7 | 0 | 71 | 70 | 71 | 71 |
| 05/01/2026 | 6:00:00 | 121 | 62 | 5:04:00 | 62 | 5:24:00 | 62 | 93 | 5:57:02 | 93 | 5:06:01 | 93.3 | 0.01 | 3.7 | 53 | 0 | 70 | 70 | 71 | 71 |
| 05/01/2026 | 7:00:00 | 121 | 62 | 6:10:01 | 62 | 6:45:01 | 62 | 93 | 6:48:05 | 93 | 6:45:00 | 93.1 | 0.02 | 2.8 | 31 | 2 | 70 | 70 | 71 | 71 |
| 05/01/2026 | 8:00:00 | 121 | 62 | 7:58:03 | 61 | 7:26:00 | 62 | 93 | 7:11:04 | 93 | 7:50:04 | 92.8 | 0.01 | 3.5 | 38 | 5 | 70 | 70 | 71 | 71 |
| 05/01/2026 | 9:00:00 | 121 | 62 | 8:19:00 | 61 | 8:57:00 | 61 | 93 | 8:05:04 | 92 | 8:55:00 | 91.9 | 0 | 4.2 | 38 | 6 | 70 | 70 | 71 | 71 |
| 05/01/2026 | 10:00:00 | 121 | 62 | 9:56:00 | 61 | 9:02:02 | 62 | 92 | 9:00:01 | 90 | 9:34:05 | 90.4 | 0 | 3.9 | 25 | 11 | 70 | 70 | 71 | 71 |
| 05/01/2026 | 11:00:00 | 121 | 62 | 10:04:04 | 61 | 10:47:03 | 61 | 91 | 10:59:00 | 90 | 10:21:04 | 90.9 | 0.02 | 4.5 | 29 | 8 | 70 | 70 | 71 | 71 |
| 05/01/2026 | 12:00:00 | 121 | 62 | 11:58:04 | 60 | 11:15:00 | 61 | 92 | 11:24:04 | 90 | 11:59:04 | 90.5 | 0 | 4.7 | 34 | 14 | 70 | 71 | 71 | 71 |
| 05/01/2026 | 13:00:00 | 121 | 62 | 12:42:01 | 61 | 12:03:01 | 62 | 91 | 12:05:01 | 88 | 12:39:03 | 88.9 | 0 | 6.0 | 38 | 16 | 71 | 71 | 71 | 71 |
| 05/01/2026 | 14:00:00 | 121 | 62 | 13:00:04 | 59 | 13:59:05 | 59 | 89 | 13:53:02 | 87 | 13:32:01 | 88.5 | 0.06 | 8.1 | 21 | 6 | 71 | 70 | 71 | 71 |
| 05/01/2026 | 15:00:00 | 121 | 59 | 14:00:01 | 57 | 14:57:03 | 57 | 92 | 14:59:02 | 88 | 14:05:04 | 91.6 | 0.36 | 5.2 | 32 | 1 | 69 | 68 | 70 | 70 |
| 05/01/2026 | 16:00:00 | 121 | 57 | 15:00:00 | 54 | 15:59:03 | 54 | 92 | 15:52:05 | 92 | 15:02:02 | 92 | 0.4 | 5.2 | 25 | 2 | 67 | 66 | 69 | 68 |
| 05/01/2026 | 17:00:00 | 121 | 55 | 16:01:01 | 54 | 16:16:02 | 54 | 93 | 16:45:05 | 92 | 16:00:00 | 92.8 | 0.2 | 5.2 | 47 | 3 | 66 | 65 | 68 | 67 |
| 05/01/2026 | 18:00:00 | 121 | 54 | 17:08:00 | 54 | 17:53:01 | 54 | 93 | 17:08:02 | 92 | 17:37:00 | 92.6 | 0.1 | 5.1 | 45 | 1 | 65 | 65 | 67 | 67 |
| 05/01/2026 | 19:00:00 | 121 | 54 | 18:31:00 | 53 | 18:56:03 | 54 | 93 | 18:58:05 | 93 | 18:01:04 | 93.1 | 0.13 | 3.2 | 60 | 0 | 65 | 65 | 67 | 66 |
| 05/01/2026 | 20:00:00 | 121 | 54 | 19:37:03 | 53 | 19:05:01 | 54 | 94 | 19:58:03 | 93 | 19:04:04 | 93.5 | 0.2 | 2.9 | 48 | 0 | 65 | 64 | 66 | 66 |
| 05/01/2026 | 21:00:00 | 121 | 54 | 20:05:01 | 53 | 20:56:05 | 53 | 94 | 20:43:01 | 94 | 20:01:00 | 93.8 | 0.3 | 4.1 | 32 | 0 | 64 | 63 | 66 | 65 |
| 05/01/2026 | 22:00:00 | 121 | 53 | 21:01:01 | 53 | 21:59:04 | 53 | 94 | 21:23:00 | 94 | 22:00:00 | 93.5 | 0.05 | 5.3 | 26 | 0 | 63 | 63 | 65 | 65 |
| 05/01/2026 | 23:00:00 | 121 | 53 | 22:00:04 | 52 | 22:30:01 | 52 | 94 | 22:00:05 | 93 | 23:00:00 | 92.5 | 0 | 4.8 | 31 | 0 | 63 | 63 | 65 | 65 |
| 05/02/2026 | 0:00:00 | 122 | 53 | 23:37:00 | 52 | 23:59:02 | 52 | 93 | 23:02:02 | 92 | 23:46:03 | 92.3 | 0.06 | 5.5 | 20 | 0 | 63 | 63 | 65 | 65 |
| 05/02/2026 | 1:00:00 | 122 | 53 | 0:52:01 | 52 | 0:03:00 | 53 | 93 | 0:49:00 | 92 | 0:03:00 | 92.8 | 0.09 | 4.7 | 13 | 0 | 63 | 63 | 64 | 64 |
| 05/02/2026 | 2:00:00 | 122 | 53 | 1:13:02 | 53 | 1:00:01 | 53 | 93 | 1:58:01 | 93 | 1:05:02 | 92.9 | 0.04 | 5.1 | 20 | 0 | 63 | 63 | 64 | 64 |
| 05/02/2026 | 3:00:00 | 122 | 53 | 2:56:05 | 53 | 2:00:03 | 53 | 93 | 2:04:01 | 93 | 2:58:05 | 92.8 | 0.01 | 5.3 | 12 | 0 | 63 | 63 | 64 | 64 |
| 05/02/2026 | 4:00:00 | 122 | 53 | 3:18:05 | 52 | 3:59:05 | 52 | 93 | 3:00:03 | 90 | 3:45:03 | 90.9 | 0.05 | 6.5 | 19 | 0 | 62 | 62 | 64 | 64 |
| 05/02/2026 | 5:00:00 | 122 | 53 | 4:55:03 | 52 | 4:16:03 | 52 | 91 | 4:14:00 | 91 | 4:58:01 | 90.6 | 0.01 | 4.8 | 21 | 0 | 62 | 62 | 64 | 64 |
| 05/02/2026 | 6:00:00 | 122 | 53 | 5:57:02 | 52 | 5:07:04 | 53 | 91 | 5:56:05 | 90 | 5:20:04 | 90.8 | 0 | 2.1 | 34 | 1 | 62 | 62 | 64 | 64 |
| 05/02/2026 | 7:00:00 | 122 | 55 | 6:59:03 | 53 | 6:00:01 | 55 | 92 | 6:51:02 | 91 | 6:16:01 | 91.4 | 0 | 3.1 | 6 | 6 | 62 | 63 | 64 | 64 |
| 05/02/2026 | 8:00:00 | 122 | 58 | 7:47:01 | 54 | 7:01:02 | 58 | 92 | 7:04:04 | 87 | 7:58:00 | 87.5 | 0 | 5.0 | 2 | 25 | 63 | 64 | 64 | 64 |
| 05/02/2026 | 9:00:00 | 122 | 62 | 8:55:05 | 58 | 8:00:00 | 62 | 88 | 8:00:04 | 78 | 8:59:05 | 78.09 | 0 | 6.8 | 14 | 51 | 65 | 66 | 65 | 65 |
| 05/02/2026 | 10:00:00 | 122 | 66 | 10:00:00 | 62 | 9:00:03 | 66 | 80 | 9:05:03 | 70 | 9:48:05 | 71.16 | 0 | 6.9 | 0 | 63 | 68 | 69 | 66 | 67 |
| 05/02/2026 | 11:00:00 | 122 | 68 | 10:59:00 | 66 | 10:00:01 | 68 | 73 | 10:05:05 | 61 | 10:52:03 | 63.05 | 0 | 7.7 | 6 | 76 | 70 | 72 | 68 | 69 |
| 05/02/2026 | 12:00:00 | 122 | 70 | 11:54:02 | 67 | 11:02:05 | 69 | 66 | 11:05:04 | 48 | 11:55:01 | 50.5 | 0 | 8.7 | 5 | 80 | 73 | 74 | 70 | 71 |
| 05/02/2026 | 13:00:00 | 122 | 71 | 12:53:01 | 68 | 12:14:01 | 70 | 55 | 12:00:04 | 41 | 12:55:05 | 46.75 | 0 | 8.9 | 357 | 83 | 74 | 75 | 72 | 73 |
| 05/02/2026 | 14:00:00 | 122 | 72 | 13:56:05 | 70 | 13:12:00 | 71 | 47 | 13:04:03 | 37 | 13:54:01 | 40.42 | 0 | 9.4 | 8 | 78 | 76 | 76 | 73 | 74 |
| 05/02/2026 | 15:00:00 | 122 | 72 | 14:52:03 | 71 | 14:28:04 | 72 | 45 | 14:29:03 | 37 | 14:09:02 | 40.4 | 0 | 8.3 | 8 | 67 | 76 | 76 | 74 | 74 |
| 05/02/2026 | 16:00:00 | 122 | 73 | 15:05:05 | 71 | 15:50:03 | 72 | 45 | 15:39:05 | 37 | 15:29:04 | 43.71 | 0 | 7.2 | 10 | 48 | 76 | 76 | 74 | 74 |
| 05/02/2026 | 17:00:00 | 122 | 72 | 16:00:05 | 71 | 16:56:04 | 71 | 45 | 16:23:04 | 39 | 16:18:03 | 41.9 | 0 | 6.6 | 0 | 20 | 75 | 74 | 74 | 74 |
| 05/02/2026 | 18:00:00 | 122 | 71 | 17:04:04 | 68 | 17:59:05 | 68 | 50 | 17:58:03 | 40 | 17:09:05 | 49.82 | 0 | 4.5 | 5 | 16 | 73 | 72 | 73 | 73 |
| 05/02/2026 | 19:00:00 | 122 | 68 | 18:00:00 | 61 | 18:57:03 | 61 | 66 | 18:55:02 | 49 | 18:00:05 | 63.42 | 0 | 1.5 | 351 | 2 | 71 | 71 | 72 | 72 |
| 05/02/2026 | 20:00:00 | 122 | 61 | 19:03:02 | 56 | 20:00:00 | 56 | 80 | 20:00:00 | 63 | 19:02:02 | 80.3 | 0 | 0.9 | 343 | 0 | 70 | 69 | 71 | 70 |
| 05/02/2026 | 21:00:00 | 122 | 57 | 20:59:01 | 53 | 20:35:04 | 57 | 86 | 20:37:02 | 71 | 20:59:03 | 71.25 | 0 | 1.1 | 338 | 0 | 68 | 68 | 70 | 69 |
| 05/02/2026 | 22:00:00 | 122 | 58 | 21:12:04 | 56 | 21:31:03 | 57 | 73 | 21:33:01 | 71 | 21:15:02 | 71.86 | 0 | 1.8 | 4 | 0 | 67 | 67 | 69 | 68 |
| 05/02/2026 | 23:00:00 | 122 | 57 | 22:00:00 | 51 | 22:59:04 | 51 | 83 | 22:59:04 | 71 | 22:05:02 | 83.3 | 0 | 0.7 | 9 | 0 | 66 | 66 | 68 | 68 |
| 05/03/2026 | 0:00:00 | 123 | 52 | 23:18:01 | 49 | 23:58:05 | 49 | 89 | 23:54:01 | 83 | 23:00:01 | 89 | 0 | 0.8 | 122 | 0 | 65 | 65 | 67 | 67 |
| 05/03/2026 | 1:00:00 | 123 | 49 | 0:16:02 | 47 | 0:48:01 | 48 | 92 | 0:54:02 | 89 | 0:00:05 | 91.5 | 0 | 0.6 | 100 | 0 | 64 | 64 | 66 | 66 |
| 05/03/2026 | 2:00:00 | 123 | 48 | 1:00:01 | 46 | 1:44:05 | 46 | 93 | 1:51:02 | 90 | 1:01:01 | 92.5 | 0 | 0.4 | 164 | 0 | 64 | 63 | 66 | 65 |
| 05/03/2026 | 3:00:00 | 123 | 47 | 2:07:01 | 45 | 2:56:03 | 45 | 93 | 2:59:03 | 92 | 2:15:05 | 93.1 | 0 | 0.4 | 177 | 0 | 63 | 63 | 65 | 65 |
| 05/03/2026 | 4:00:00 | 123 | 46 | 3:19:02 | 44 | 3:59:04 | 44 | 94 | 3:30:02 | 92 | 3:07:05 | 92.9 | 0 | 0.8 | 112 | 0 | 62 | 62 | 64 | 64 |
| 05/03/2026 | 5:00:00 | 123 | 45 | 4:12:00 | 43 | 4:38:02 | 44 | 94 | 4:49:03 | 93 | 4:34:01 | 93.6 | 0 | 0.9 | 153 | 0 | 62 | 62 | 64 | 64 |
| 05/03/2026 | 6:00:00 | 123 | 47 | 5:56:02 | 43 | 5:19:05 | 47 | 95 | 5:45:03 | 93 | 5:19:01 | 94.3 | 0 | 0.9 | 308 | 4 | 61 | 61 | 63 | 63 |
| 05/03/2026 | 7:00:00 | 123 | 55 | 6:57:04 | 47 | 6:00:03 | 55 | 95 | 6:08:04 | 92 | 6:59:00 | 92 | 0 | 0.7 | 332 | 19 | 61 | 62 | 63 | 63 |
| 05/03/2026 | 8:00:00 | 123 | 64 | 7:56:05 | 55 | 7:00:00 | 64 | 92 | 7:03:03 | 66 | 7:59:02 | 67.98 | 0 | 1.3 | 349 | 37 | 63 | 64 | 63 | 64 |
| 05/03/2026 | 9:00:00 | 123 | 69 | 8:56:05 | 64 | 8:00:00 | 68 | 70 | 8:00:05 | 47 | 8:51:03 | 51.9 | 0 | 3.1 | 31 | 54 | 66 | 67 | 65 | 66 |
| 05/03/2026 | 10:00:00 | 123 | 72 | 9:58:02 | 68 | 9:03:00 | 72 | 56 | 9:17:00 | 41 | 9:48:00 | 47.28 | 0 | 3.1 | 27 | 68 | 69 | 71 | 67 | 68 |
| 05/03/2026 | 11:00:00 | 123 | 73 | 10:51:02 | 70 | 10:14:02 | 72 | 53 | 10:36:02 | 40 | 10:29:00 | 45.62 | 0 | 2.9 | 32 | 78 | 73 | 75 | 70 | 71 |
| 05/03/2026 | 12:00:00 | 123 | 74 | 11:42:00 | 70 | 11:06:03 | 73 | 50 | 11:08:04 | 38 | 11:51:03 | 40.39 | 0 | 3.3 | 330 | 78 | 76 | 77 | 72 | 73 |
| 05/03/2026 | 13:00:00 | 123 | 75 | 12:56:02 | 73 | 12:00:02 | 74 | 49 | 12:14:00 | 35 | 12:57:02 | 38.99 | 0 | 4.1 | 319 | 85 | 78 | 80 | 75 | 76 |
| 05/03/2026 | 14:00:00 | 123 | 75 | 13:58:02 | 73 | 13:04:01 | 75 | 48 | 13:51:03 | 36 | 13:04:01 | 41.81 | 0 | 4.7 | 3 | 77 | 80 | 81 | 76 | 77 |
| 05/03/2026 | 15:00:00 | 123 | 76 | 14:41:01 | 75 | 14:00:00 | 76 | 50 | 14:55:03 | 38 | 14:02:00 | 39.9 | 0 | 4.6 | 308 | 71 | 81 | 81 | 78 | 78 |
| 05/03/2026 | 16:00:00 | 123 | 77 | 15:54:01 | 75 | 15:09:03 | 76 | 47 | 15:10:04 | 38 | 15:17:05 | 42 | 0 | 2.8 | 359 | 50 | 81 | 81 | 78 | 79 |
| 05/03/2026 | 17:00:00 | 123 | 77 | 16:04:02 | 76 | 16:55:05 | 76 | 47 | 16:11:03 | 38 | 16:05:01 | 42 | 0 | 2.1 | 27 | 25 | 80 | 79 | 78 | 78 |
| 05/03/2026 | 18:00:00 | 123 | 78 | 17:16:01 | 73 | 17:59:04 | 73 | 63 | 18:00:00 | 38 | 17:17:02 | 63.05 | 0 | 0.9 | 329 | 15 | 78 | 77 | 78 | 77 |
| 05/03/2026 | 19:00:00 | 123 | 73 | 18:00:02 | 62 | 19:00:00 | 62 | 79 | 19:00:00 | 59 | 18:03:03 | 78.74 | 0 | 0.4 | 166 | 2 | 76 | 75 | 76 | 76 |
| 05/03/2026 | 20:00:00 | 123 | 62 | 19:00:01 | 58 | 19:53:02 | 58 | 88 | 19:56:00 | 79 | 19:00:01 | 87.5 | 0 | 0.7 | 159 | 0 | 74 | 73 | 75 | 74 |
| 05/03/2026 | 21:00:00 | 123 | 59 | 20:04:01 | 56 | 20:54:03 | 56 | 89 | 20:56:00 | 84 | 20:07:03 | 88.8 | 0 | 0.6 | 115 | 0 | 72 | 71 | 73 | 73 |
| 05/03/2026 | 22:00:00 | 123 | 57 | 21:06:00 | 55 | 21:57:01 | 55 | 91 | 21:59:04 | 89 | 21:00:01 | 91 | 0 | 0.9 | 133 | 0 | 71 | 70 | 72 | 71 |
| 05/03/2026 | 23:00:00 | 123 | 55 | 22:00:03 | 53 | 22:51:01 | 53 | 92 | 22:54:02 | 91 | 22:06:04 | 92.2 | 0 | 0.3 | 153 | 0 | 69 | 69 | 71 | 70 |
| 05/04/2026 | 0:00:00 | 124 | 54 | 23:12:02 | 52 | 23:56:03 | 52 | 93 | 23:52:05 | 92 | 23:26:04 | 92.9 | 0 | 0.9 | 132 | 0 | 68 | 68 | 70 | 69 |
| 05/04/2026 | 1:00:00 | 124 | 53 | 0:13:02 | 51 | 0:56:01 | 51 | 93 | 0:12:05 | 93 | 0:54:02 | 93.3 | 0 | 0.9 | 70 | 0 | 67 | 67 | 69 | 69 |
| 05/04/2026 | 2:00:00 | 124 | 52 | 1:18:00 | 50 | 1:32:02 | 50 | 94 | 1:42:00 | 93 | 1:25:01 | 93.5 | 0 | 0.6 | 45 | 0 | 66 | 66 | 68 | 68 |
| 05/04/2026 | 3:00:00 | 124 | 51 | 2:25:00 | 49 | 2:59:05 | 49 | 94 | 2:45:02 | 93 | 2:06:03 | 93.5 | 0 | 0.6 | 97 | 0 | 66 | 65 | 68 | 67 |
| 05/04/2026 | 4:00:00 | 124 | 50 | 3:10:05 | 48 | 3:54:05 | 49 | 95 | 3:59:05 | 93 | 3:00:01 | 94.5 | 0 | 0.2 | 131 | 0 | 65 | 65 | 67 | 66 |
| 05/04/2026 | 5:00:00 | 124 | 49 | 4:01:05 | 47 | 4:36:02 | 48 | 95 | 4:27:05 | 94 | 4:10:04 | 94.5 | 0 | 0.2 | 105 | 0 | 64 | 64 | 66 | 66 |
| 05/04/2026 | 6:00:00 | 124 | 50 | 5:58:03 | 47 | 5:13:03 | 50 | 95 | 5:59:00 | 94 | 5:07:03 | 95.1 | 0 | 0.3 | 81 | 3 | 64 | 63 | 66 | 65 |
| 05/04/2026 | 7:00:00 | 124 | 59 | 6:59:05 | 50 | 6:03:01 | 59 | 95 | 6:00:01 | 90 | 7:00:00 | 89.5 | 0 | 0.8 | 89 | 19 | 64 | 64 | 65 | 65 |
| 05/04/2026 | 8:00:00 | 124 | 67 | 8:00:00 | 59 | 7:02:04 | 67 | 90 | 7:00:00 | 70 | 7:59:05 | 70.02 | 0 | 1.4 | 212 | 37 | 65 | 66 | 66 | 66 |
| 05/04/2026 | 9:00:00 | 124 | 71 | 9:00:00 | 67 | 8:01:05 | 71 | 72 | 8:05:03 | 60 | 8:59:02 | 62.18 | 0 | 3.1 | 290 | 54 | 68 | 70 | 67 | 68 |
| 05/04/2026 | 10:00:00 | 124 | 73 | 9:55:01 | 70 | 9:12:03 | 73 | 66 | 9:06:04 | 53 | 9:45:04 | 56.75 | 0 | 3.9 | 242 | 68 | 71 | 73 | 69 | 71 |
| 05/04/2026 | 11:00:00 | 124 | 75 | 10:38:05 | 73 | 10:00:02 | 74 | 59 | 10:08:03 | 44 | 10:06:00 | 47.2 | 0 | 5.1 | 212 | 78 | 75 | 77 | 72 | 73 |
| 05/04/2026 | 12:00:00 | 124 | 76 | 11:54:05 | 74 | 11:00:02 | 76 | 54 | 11:39:05 | 44 | 11:04:01 | 45.87 | 0 | 5.1 | 201 | 83 | 78 | 79 | 74 | 75 |
| 05/04/2026 | 13:00:00 | 124 | 78 | 12:59:05 | 75 | 12:03:03 | 78 | 53 | 12:06:04 | 43 | 12:28:03 | 46.26 | 0 | 6.4 | 183 | 83 | 80 | 81 | 76 | 77 |
| 05/04/2026 | 14:00:00 | 124 | 78 | 13:06:03 | 76 | 13:51:02 | 78 | 55 | 13:25:01 | 43 | 13:02:05 | 46.56 | 0 | 5.6 | 190 | 65 | 82 | 82 | 78 | 78 |
| 05/04/2026 | 15:00:00 | 124 | 78 | 14:34:05 | 77 | 14:39:00 | 77 | 50 | 14:49:04 | 40 | 14:10:03 | 42.84 | 0 | 7.1 | 208 | 67 | 82 | 82 | 79 | 79 |
| 05/04/2026 | 16:00:00 | 124 | 78 | 15:05:00 | 76 | 15:59:05 | 76 | 50 | 15:45:00 | 39 | 15:08:04 | 48.35 | 0 | 6.4 | 193 | 52 | 81 | 81 | 79 | 79 |
| 05/04/2026 | 17:00:00 | 124 | 77 | 16:03:05 | 75 | 16:58:01 | 75 | 52 | 16:46:00 | 44 | 16:04:02 | 50.02 | 0 | 5.8 | 191 | 34 | 80 | 79 | 78 | 78 |
| 05/04/2026 | 18:00:00 | 124 | 75 | 17:02:00 | 72 | 17:59:02 | 72 | 57 | 17:57:05 | 47 | 17:14:03 | 56.63 | 0 | 4.7 | 186 | 16 | 78 | 77 | 78 | 77 |
| 05/04/2026 | 19:00:00 | 124 | 72 | 18:00:01 | 66 | 18:57:01 | 66 | 68 | 18:57:00 | 56 | 18:02:05 | 67.15 | 0 | 2.9 | 169 | 2 | 76 | 75 | 76 | 75 |
| 05/04/2026 | 20:00:00 | 124 | 67 | 19:07:02 | 64 | 19:59:04 | 64 | 71 | 19:59:01 | 65 | 19:19:00 | 70.82 | 0 | 2.7 | 146 | 0 | 74 | 73 | 75 | 74 |
| 05/04/2026 | 21:00:00 | 124 | 64 | 20:00:02 | 61 | 20:59:05 | 61 | 78 | 20:33:02 | 71 | 20:01:02 | 77.87 | 0 | 1.5 | 114 | 0 | 72 | 72 | 73 | 73 |
| 05/04/2026 | 22:00:00 | 124 | 61 | 21:08:03 | 59 | 21:50:02 | 59 | 84 | 21:53:05 | 78 | 21:00:00 | 83.8 | 0 | 0.9 | 124 | 0 | 71 | 70 | 72 | 72 |
| 05/04/2026 | 23:00:00 | 124 | 59 | 22:00:04 | 57 | 22:37:04 | 57 | 88 | 22:41:03 | 84 | 22:00:00 | 87.8 | 0 | 0.3 | 59 | 0 | 70 | 69 | 71 | 71 |
| 05/05/2026 | 0:00:00 | 125 | 57 | 23:00:05 | 55 | 23:59:04 | 55 | 90 | 23:51:00 | 88 | 23:08:05 | 89.8 | 0 | 0.2 | 68 | 0 | 69 | 69 | 70 | 70 |
| 05/05/2026 | 1:00:00 | 125 | 55 | 0:59:03 | 54 | 0:29:01 | 55 | 92 | 0:59:02 | 90 | 0:00:00 | 91.8 | 0 | 0.0 | 69 | 0 | 68 | 68 | 70 | 69 |
| 05/05/2026 | 2:00:00 | 125 | 55 | 1:01:03 | 54 | 1:27:03 | 54 | 93 | 1:58:02 | 92 | 1:13:02 | 92.4 | 0 | 0.5 | 69 | 0 | 67 | 67 | 69 | 69 |
| 05/05/2026 | 3:00:00 | 125 | 54 | 2:00:01 | 53 | 2:17:00 | 54 | 93 | 2:52:03 | 92 | 2:15:03 | 92.8 | 0 | 0.4 | 79 | 0 | 67 | 67 | 68 | 68 |
| 05/05/2026 | 4:00:00 | 125 | 54 | 3:22:00 | 53 | 3:49:02 | 53 | 93 | 4:00:00 | 93 | 3:06:04 | 93.4 | 0 | 0.1 | 48 | 0 | 66 | 66 | 68 | 68 |
| 05/05/2026 | 5:00:00 | 125 | 54 | 4:07:00 | 53 | 4:00:00 | 54 | 94 | 4:03:01 | 93 | 4:56:01 | 93.4 | 0 | 1.4 | 70 | 0 | 66 | 66 | 67 | 67 |
| 05/05/2026 | 6:00:00 | 125 | 56 | 6:00:00 | 53 | 5:18:01 | 56 | 94 | 5:59:03 | 93 | 5:17:03 | 93.9 | 0 | 0.8 | 75 | 2 | 66 | 65 | 67 | 67 |
| 05/05/2026 | 7:00:00 | 125 | 62 | 6:59:00 | 56 | 6:00:00 | 62 | 94 | 6:00:03 | 87 | 7:00:00 | 86.9 | 0 | 1.9 | 128 | 13 | 66 | 66 | 67 | 67 |
| 05/05/2026 | 8:00:00 | 125 | 70 | 7:59:04 | 62 | 7:00:01 | 70 | 87 | 7:01:00 | 78 | 7:56:04 | 78.57 | 0 | 2.4 | 132 | 27 | 67 | 68 | 67 | 68 |
| 05/05/2026 | 9:00:00 | 125 | 74 | 8:57:02 | 69 | 8:00:01 | 73 | 79 | 8:07:03 | 72 | 8:47:03 | 73.53 | 0 | 6.0 | 178 | 43 | 69 | 71 | 68 | 69 |
| 05/05/2026 | 10:00:00 | 125 | 76 | 9:54:03 | 73 | 9:00:01 | 76 | 75 | 9:07:01 | 71 | 9:59:04 | 71.42 | 0 | 8.0 | 187 | 51 | 72 | 73 | 70 | 71 |
| 05/05/2026 | 11:00:00 | 125 | 79 | 10:52:01 | 75 | 10:00:04 | 78 | 74 | 10:01:04 | 66 | 10:57:03 | 66.92 | 0 | 7.3 | 189 | 70 | 75 | 76 | 72 | 73 |
| 05/05/2026 | 12:00:00 | 125 | 81 | 11:55:03 | 78 | 11:09:00 | 81 | 70 | 11:11:05 | 64 | 11:50:00 | 67.81 | 0 | 7.3 | 178 | 79 | 78 | 79 | 74 | 75 |
| 05/05/2026 | 13:00:00 | 125 | 82 | 12:32:05 | 80 | 12:13:05 | 81 | 70 | 12:17:02 | 63 | 12:41:01 | 68.49 | 0 | 7.2 | 167 | 71 | 81 | 82 | 76 | 77 |
| 05/05/2026 | 14:00:00 | 125 | 82 | 13:29:03 | 80 | 13:58:03 | 80 | 69 | 13:48:00 | 63 | 13:09:01 | 66.05 | 0 | 8.4 | 175 | 59 | 82 | 82 | 78 | 79 |
| 05/05/2026 | 15:00:00 | 125 | 82 | 14:45:02 | 80 | 14:52:03 | 80 | 69 | 14:59:01 | 64 | 14:15:01 | 66.87 | 0 | 8.0 | 159 | 41 | 82 | 81 | 79 | 79 |
| 05/05/2026 | 16:00:00 | 125 | 80 | 15:00:01 | 79 | 15:45:02 | 80 | 72 | 15:47:01 | 66 | 15:00:02 | 70.65 | 0 | 8.0 | 165 | 26 | 81 | 80 | 79 | 78 |
| 05/05/2026 | 17:00:00 | 125 | 80 | 16:00:05 | 77 | 16:59:03 | 77 | 73 | 16:42:00 | 69 | 16:02:04 | 72.51 | 0 | 7.6 | 159 | 14 | 79 | 79 | 78 | 78 |
| 05/05/2026 | 18:00:00 | 125 | 77 | 17:00:00 | 76 | 17:57:01 | 76 | 76 | 17:57:05 | 72 | 17:02:01 | 75.32 | 0 | 7.0 | 160 | 4 | 78 | 77 | 77 | 77 |
| 05/05/2026 | 19:00:00 | 125 | 76 | 18:00:01 | 74 | 18:59:04 | 74 | 81 | 19:00:00 | 75 | 18:02:05 | 80.5 | 0 | 5.7 | 156 | 1 | 77 | 76 | 77 | 76 |
| 05/05/2026 | 20:00:00 | 125 | 74 | 19:05:01 | 73 | 19:52:04 | 73 | 83 | 19:52:05 | 80 | 19:02:00 | 83.1 | 0 | 4.6 | 147 | 0 | 75 | 75 | 76 | 75 |
| 05/05/2026 | 21:00:00 | 125 | 73 | 20:00:00 | 70 | 20:59:05 | 70 | 88 | 20:59:02 | 83 | 20:01:00 | 87.6 | 0 | 2.5 | 130 | 0 | 74 | 74 | 75 | 74 |
| 05/05/2026 | 22:00:00 | 125 | 70 | 21:00:00 | 70 | 21:30:00 | 70 | 90 | 21:58:04 | 88 | 21:00:05 | 90 | 0 | 3.5 | 142 | 0 | 73 | 73 | 74 | 74 |
| 05/05/2026 | 23:00:00 | 125 | 70 | 22:23:00 | 70 | 22:00:02 | 70 | 91 | 22:59:04 | 90 | 22:24:04 | 90.5 | 0 | 5.0 | 159 | 0 | 73 | 72 | 73 | 73 |
| 05/06/2026 | 0:00:00 | 126 | 70 | 23:51:02 | 70 | 23:12:04 | 70 | 91 | 23:59:00 | 90 | 23:10:03 | 91.1 | 0 | 5.5 | 159 | 0 | 72 | 72 | 73 | 73 |
| 05/06/2026 | 1:00:00 | 126 | 71 | 0:54:01 | 70 | 0:00:03 | 71 | 92 | 0:29:00 | 91 | 0:00:03 | 91.2 | 0 | 6.4 | 161 | 0 | 72 | 72 | 73 | 72 |
| 05/06/2026 | 2:00:00 | 126 | 71 | 1:14:04 | 70 | 1:57:01 | 70 | 92 | 1:59:01 | 91 | 1:15:02 | 91.6 | 0 | 5.4 | 175 | 0 | 72 | 72 | 72 | 72 |
| 05/06/2026 | 3:00:00 | 126 | 71 | 3:00:00 | 70 | 2:33:03 | 71 | 92 | 2:36:03 | 92 | 2:00:01 | 91.8 | 0 | 4.7 | 178 | 0 | 72 | 72 | 72 | 72 |
| 05/06/2026 | 4:00:00 | 126 | 71 | 3:56:01 | 70 | 3:01:05 | 71 | 92 | 3:00:00 | 91 | 3:42:04 | 91.5 | 0 | 4.2 | 178 | 0 | 72 | 72 | 72 | 72 |
| 05/06/2026 | 5:00:00 | 126 | 71 | 4:39:00 | 71 | 4:02:03 | 71 | 92 | 4:59:04 | 92 | 4:00:03 | 91.8 | 0 | 2.1 | 175 | 0 | 72 | 72 | 72 | 72 |
| Average | 66.34 | 64.1 | 65.21 | 83.1 | 78.13 | 80.6 | 0.03 | 3.57 | 17.97 | 71.89 | 71.91 | 71.98 | 71.98 | |||||||
| Total | 5.06 |